• Join FlightAware (Why Join?)
  • Login
  • US Flag 
 
02:51PM EST


 

Airport Tracker/Info


-or-


 

Live Flight TrackerFlight Track Log ✈ UPS1354 ✈ 08-05-2013 ✈ KSDF - KBHM

Flight Track Log - Related Links

Times and Time Zones

All times are in EDT time to prevent confusion due to time zone crossing. See the UPS1354 flight status page for this flight to view local times or setup timezone preferences in your user account.

Time Position Orientation Groundspeed Altitude Reporting Facility
EDT Latitude Longitude Course Direction KTS MPH feet Rate Location/Type
04:59AM 38.1520 -85.7200 164° South 178 205 1,700  Level FlightAware
04:59AM 38.1290 -85.7120 165° South 216 249 2,500 2,160 Climbing FlightAware
05:00AM 38.0980 -85.7020 166° South 245 282 3,700 3,000 Climbing FlightAware
05:00AM 38.0630 -85.6900 165° South 254 292 5,500 3,480 Climbing FlightAware
05:01AM 38.0340 -85.6810 166° South 262 302 6,900 3,000 Climbing FlightAware
05:01AM 37.9980 -85.6720 169° South 285 328 8,300 2,700 Climbing FlightAware
05:01AM 37.9850 -85.6750 190° South 296 341 8,700 2,580 Climbing FlightAware
05:02AM 37.9230 -85.7080 203° Southwest 326 375 10,700 2,220 Climbing FlightAware
05:03AM 37.8610 -85.7260 193° South 371 427 11,900 1,800 Climbing FlightAware
05:03AM 37.7810 -85.7470 192° South 409 471 13,300 2,280 Climbing FlightAware
05:04AM 37.7060 -85.7650 191° South 418 481 15,200 2,520 Climbing FlightAware
05:05AM 37.6340 -85.7830 191° South 433 498 16,700 2,460 Climbing FlightAware
05:05AM 37.5370 -85.8060 191° South 445 512 18,700 2,580 Climbing FlightAware
05:06AM 37.4540 -85.8270 191° South 453 521 20,400 2,220 Climbing FlightAware
05:07AM 37.3630 -85.8490 191° South 464 534 21,900 1,980 Climbing FlightAware
05:07AM 37.3020 -85.8640 191° South 471 542 22,900 660 Climbing FlightAware
05:08AM 37.1980 -85.8890 191° South 471 542 22,900 1,980 Level FlightAware
05:09AM 37.1045 -85.9128 191° South 487 560 25,800 3,180 Climbing FlightAware ADS-B
05:10AM 36.9586 -85.9491 191° South 487 560 28,100 2,100 Climbing FlightAware ADS-B
05:10AM 36.8925 -85.9654 191° South 483 556 29,200 2,160 Climbing FlightAware ADS-B
05:11AM 36.8250 -85.9820 191° South 478 550 30,300 1,980 Climbing FlightAware ADS-B
05:11AM 36.7518 -86.0000 191° South 474 545 31,400 1,200 Climbing FlightAware ADS-B
05:12AM 36.6425 -86.0265 191° South 478 550 32,000 300 Climbing FlightAware ADS-B
05:13AM 36.5130 -86.0580 191° South 471 542 32,000  Level FlightAware
05:14AM 36.4150 -86.0820 191° South 465 535 32,000  Level FlightAware
05:15AM 36.3290 -86.1030 191° South 464 534 32,000  Level FlightAware
05:16AM 36.2370 -86.1250 191° South 470 541 32,000  Level FlightAware
05:16AM 36.1645 -86.1416 190° South 469 540 32,000  Level FlightAware ADS-B
05:17AM 36.0998 -86.1550 190° South 466 536 32,000  Level FlightAware ADS-B
05:17AM 36.0359 -86.1683 190° South 465 535 32,000  Level FlightAware ADS-B
05:18AM 35.9664 -86.1830 190° South 464 534 32,000  Level FlightAware ADS-B
05:18AM 35.9016 -86.1969 190° South 464 534 32,000  Level FlightAware ADS-B
05:19AM 35.8374 -86.2103 190° South 465 535 32,000  Level FlightAware ADS-B
05:19AM 35.7734 -86.2236 190° South 465 535 32,000  Level FlightAware ADS-B
05:20AM 35.7070 -86.2375 190° South 465 535 32,000  Level FlightAware ADS-B
05:20AM 35.6427 -86.2513 190° South 463 533 32,000  Level FlightAware ADS-B
05:21AM 35.5786 -86.2645 190° South 460 529 32,000  Level FlightAware ADS-B
05:21AM 35.5151 -86.2777 190° South 459 528 32,000  Level FlightAware ADS-B
05:22AM 35.4511 -86.2913 190° South 459 528 32,000 -120 Level FlightAware ADS-B
05:22AM 35.3540 -86.3110 189° South 467 537 31,900 -540 Descending FlightAware
05:23AM 35.2660 -86.3300 190° South 466 536 31,200 -660 Descending FlightAware
05:24AM 35.1820 -86.3460 189° South 464 534 31,000 -1,320 Descending FlightAware
05:25AM 35.0910 -86.3660 190° South 453 521 29,500 -2,220 Descending FlightAware
05:25AM 35.0150 -86.3820 190° South 437 503 28,100 -2,340 Descending FlightAware
05:26AM 34.9469 -86.3960 190° South 438 504 26,800 -2,280 Descending FlightAware ADS-B
05:26AM 34.8734 -86.4110 190° South 426 490 25,500 -420 Descending FlightAware ADS-B
05:27AM 34.7830 -86.4280 189° South 421 484 26,200 360 Climbing FlightAware
05:28AM 34.7170 -86.4410 189° South 421 484 26,200  Level FlightAware
05:29AM 34.6520 -86.4530 189° South 421 484 26,200  Level FlightAware
05:29AM 34.5870 -86.4660 189° South 421 484 26,200  Level FlightAware
05:30AM 34.5210 -86.4780 189° South 421 484 26,200 -8,160 Level FlightAware
05:31AM 34.3978 -86.5108 189° South 401 461 15,900 -10,320 Descending Atlanta Center
05:31AM 34.3369 -86.5242 190° South 404 465 14,700 -2,400 Descending Atlanta Center
05:32AM 34.2658 -86.5347 187° South 411 473 13,000 -2,340 Descending Atlanta Center
05:32AM 34.2300 -86.5464 195° South 392 451 12,400 -1,800 Descending Atlanta Center
05:33AM 34.1714 -86.5544 186° South 401 461 11,200 -1,380 Descending Atlanta Center
05:33AM 34.1272 -86.5658 192° South 368 423 11,000 -240 Descending Atlanta Center
05:34AM 34.0769 -86.5744 188° South 376 433 11,000 -240 Level Atlanta Center
05:34AM 34.0414 -86.5833 192° South 307 353 10,800 -1,260 Descending Atlanta Center
05:40AM 33.6940 -86.5070 192° South 211 243 3,600 -1,200 Descending FlightAware
05:40AM 33.6850 -86.5300 245° Southwest 205 236 3,300 -780 Descending FlightAware
05:41AM 33.6710 -86.5640 244° Southwest 200 230 2,900 -600 Descending FlightAware
05:42AM 33.6550 -86.6000 242° Southwest 199 229 2,700 -300 Descending FlightAware